createdAt,value
2023-04-21T00:00:52.824Z,8.70
2023-04-21T00:03:22.157Z,8.60
2023-04-21T00:05:50.801Z,8.60
2023-04-21T00:10:47.021Z,8.50
2023-04-21T00:13:14.419Z,8.50
2023-04-21T00:15:41.920Z,8.50
2023-04-21T00:18:09.957Z,8.50
2023-04-21T00:20:37.160Z,8.50
2023-04-21T00:23:04.375Z,8.50
2023-04-21T00:25:31.327Z,8.40
2023-04-21T00:27:58.940Z,8.40
2023-04-21T00:30:26.054Z,8.50
2023-04-21T00:32:53.421Z,8.50
2023-04-21T00:35:22.648Z,8.50
2023-04-21T00:37:50.400Z,8.50
2023-04-21T00:40:17.386Z,8.50
2023-04-21T00:42:45.013Z,8.50
2023-04-21T00:45:12.196Z,8.40
2023-04-21T00:47:39.348Z,8.40
2023-04-21T00:50:06.623Z,8.30
2023-04-21T00:52:34.593Z,8.30
2023-04-21T00:55:02.035Z,8.30
2023-04-21T00:57:29.712Z,8.30
2023-04-21T00:59:56.905Z,8.30
2023-04-21T01:02:25.328Z,8.20
2023-04-21T01:04:52.670Z,8.20
2023-04-21T01:07:20.696Z,8.10
2023-04-21T01:09:47.870Z,8.10
2023-04-21T01:12:15.258Z,8.10
2023-04-21T01:14:42.381Z,8.00
2023-04-21T01:17:10.982Z,8.00
2023-04-21T01:19:42.364Z,8.00
2023-04-21T01:22:12.849Z,8.00
2023-04-21T01:24:43.924Z,7.90
2023-04-21T01:27:15.617Z,7.90
2023-04-21T01:29:43.275Z,7.90
2023-04-21T01:32:11.943Z,7.90
2023-04-21T01:34:40.201Z,7.90
2023-04-21T01:37:11.318Z,7.90
2023-04-21T01:39:42.777Z,7.90
2023-04-21T01:42:10.077Z,7.80
2023-04-21T01:44:37.632Z,7.80
2023-04-21T01:47:06.350Z,7.80
2023-04-21T01:52:00.876Z,7.70
2023-04-21T01:54:27.885Z,7.70
2023-04-21T01:56:55.206Z,7.70
2023-04-21T01:59:22.702Z,7.60
2023-04-21T02:01:50.169Z,7.60
2023-04-21T02:04:17.811Z,7.60
2023-04-21T02:06:45.551Z,7.60
2023-04-21T02:09:12.511Z,7.60
2023-04-21T02:11:39.624Z,7.50
2023-04-21T02:14:06.574Z,7.50
2023-04-21T02:16:33.716Z,7.50
2023-04-21T02:19:01.055Z,7.40
2023-04-21T02:21:28.182Z,7.40
2023-04-21T02:23:55.396Z,7.40
2023-04-21T02:26:22.528Z,7.40
2023-04-21T02:28:50.426Z,7.40
2023-04-21T02:31:17.768Z,7.40
2023-04-21T02:33:45.272Z,7.30
2023-04-21T02:36:12.332Z,7.30
2023-04-21T02:38:39.452Z,7.30
2023-04-21T02:41:09.928Z,7.20
2023-04-21T02:43:37.113Z,7.20
2023-04-21T02:46:07.937Z,7.10
2023-04-21T02:48:35.711Z,7.10
2023-04-21T02:51:03.196Z,7.10
2023-04-21T02:53:31.175Z,7.10
2023-04-21T02:55:58.264Z,7.10
2023-04-21T02:58:25.526Z,7.00
2023-04-21T03:00:52.750Z,7.00
2023-04-21T03:03:20.122Z,7.00
2023-04-21T03:05:47.298Z,7.00
2023-04-21T03:08:14.564Z,7.00
2023-04-21T03:10:41.731Z,7.00
2023-04-21T03:13:09.018Z,6.90
2023-04-21T03:15:35.981Z,7.00
2023-04-21T03:18:03.043Z,7.00
2023-04-21T03:20:30.132Z,7.00
2023-04-21T03:22:57.539Z,7.00
2023-04-21T03:25:24.805Z,7.00
2023-04-21T03:27:51.963Z,7.00
2023-04-21T03:30:19.758Z,7.00
2023-04-21T03:32:47.058Z,7.00
2023-04-21T03:35:14.116Z,7.00
2023-04-21T03:37:41.319Z,7.00
2023-04-21T03:40:11.648Z,7.00
2023-04-21T03:42:38.949Z,7.00
2023-04-21T03:45:06.860Z,7.00
2023-04-21T03:47:34.874Z,7.00
2023-04-21T03:50:03.787Z,7.10
2023-04-21T03:52:31.075Z,7.10
2023-04-21T03:54:58.038Z,7.20
2023-04-21T03:57:25.183Z,7.20
2023-04-21T03:59:52.105Z,7.30
2023-04-21T04:02:19.903Z,7.30
2023-04-21T04:04:47.622Z,7.30
2023-04-21T04:07:15.051Z,7.40
2023-04-21T04:09:42.322Z,7.40
2023-04-21T04:12:11.148Z,7.40
2023-04-21T04:14:39.683Z,7.40
2023-04-21T04:17:06.725Z,7.40
2023-04-21T04:19:33.920Z,7.50
2023-04-21T04:22:01.377Z,7.40
2023-04-21T04:24:28.598Z,7.50
2023-04-21T04:26:58.105Z,7.50
2023-04-21T04:29:25.752Z,7.50
2023-04-21T04:31:53.090Z,7.50
2023-04-21T04:34:20.164Z,7.60
2023-04-21T04:36:48.215Z,7.70
2023-04-21T04:39:16.515Z,7.70
2023-04-21T04:41:43.748Z,7.80
2023-04-21T04:44:12.309Z,7.90
2023-04-21T04:46:39.591Z,7.90
2023-04-21T04:49:06.703Z,8.00
2023-04-21T04:51:33.987Z,8.00
2023-04-21T04:54:01.204Z,8.00
2023-04-21T04:56:30.032Z,8.10
2023-04-21T04:58:57.191Z,8.10
2023-04-21T05:01:30.424Z,8.20
2023-04-21T05:03:57.876Z,8.20
2023-04-21T05:06:24.991Z,8.30
2023-04-21T05:08:52.244Z,8.30
2023-04-21T05:11:19.156Z,8.40
2023-04-21T05:13:46.483Z,8.50
2023-04-21T05:16:13.464Z,8.60
2023-04-21T05:18:40.797Z,8.60
2023-04-21T05:21:07.855Z,8.70
2023-04-21T05:23:35.165Z,8.70
2023-04-21T05:26:04.167Z,8.80
2023-04-21T05:28:32.956Z,8.80
2023-04-21T05:31:00.067Z,8.90
2023-04-21T05:33:27.592Z,9.00
2023-04-21T05:35:54.526Z,9.10
2023-04-21T05:38:21.669Z,9.20
2023-04-21T05:40:55.753Z,9.30
2023-04-21T05:43:23.335Z,9.40
2023-04-21T05:45:50.463Z,9.60
2023-04-21T05:48:17.830Z,9.60
2023-04-21T05:50:45.026Z,9.70
2023-04-21T05:53:12.292Z,9.70
2023-04-21T05:55:39.353Z,9.70
2023-04-21T05:58:06.662Z,9.70
2023-04-21T06:00:33.724Z,9.80
2023-04-21T06:03:01.291Z,9.70
2023-04-21T06:05:28.334Z,9.70
2023-04-21T06:07:55.462Z,9.70
2023-04-21T06:10:22.416Z,9.70
2023-04-21T06:12:49.814Z,9.70
2023-04-21T06:15:16.809Z,9.80
2023-04-21T06:17:44.133Z,9.80
2023-04-21T06:20:11.799Z,9.90
2023-04-21T06:22:39.116Z,9.90
2023-04-21T06:25:06.607Z,10.00
2023-04-21T06:27:33.799Z,10.10
2023-04-21T06:30:00.735Z,10.20
2023-04-21T06:32:27.938Z,10.40
2023-04-21T06:34:54.917Z,10.70
2023-04-21T06:37:21.888Z,10.80
2023-04-21T06:39:48.843Z,11.10
2023-04-21T06:42:15.924Z,11.30
2023-04-21T06:44:43.271Z,11.60
2023-04-21T06:47:10.798Z,11.80
2023-04-21T06:49:37.936Z,12.10
2023-04-21T06:52:04.982Z,12.40
2023-04-21T06:54:31.988Z,12.60
2023-04-21T06:56:58.964Z,12.80
2023-04-21T07:14:13.530Z,15.20
2023-04-21T07:16:40.601Z,15.40
2023-04-21T07:19:07.548Z,15.60
2023-04-21T07:21:36.377Z,15.60
2023-04-21T07:24:04.086Z,15.70
2023-04-21T07:26:31.065Z,16.00
2023-04-21T07:31:28.477Z,16.50
2023-04-21T07:33:55.756Z,16.80
2023-04-21T07:36:22.816Z,17.00
2023-04-21T07:38:49.895Z,17.20
2023-04-21T07:41:16.922Z,17.90
2023-04-21T07:43:44.012Z,18.50
2023-04-21T07:46:13.359Z,18.60
2023-04-21T07:48:40.962Z,18.60
2023-04-21T07:51:07.929Z,18.30
2023-04-21T07:53:36.198Z,18.50
2023-04-21T07:56:03.518Z,18.90
2023-04-21T07:58:30.474Z,18.90
2023-04-21T08:00:57.458Z,19.10
2023-04-21T08:03:25.087Z,19.10
2023-04-21T08:05:52.310Z,19.20
2023-04-21T08:08:20.586Z,19.40
2023-04-21T08:10:47.734Z,19.70
2023-04-21T08:13:15.009Z,19.80
2023-04-21T08:15:42.069Z,19.90
2023-04-21T08:18:09.480Z,20.00
2023-04-21T08:20:36.665Z,20.20
2023-04-21T08:23:03.995Z,20.40
2023-04-21T08:25:31.156Z,20.50
2023-04-21T08:27:58.177Z,20.40
2023-04-21T08:30:26.071Z,20.10
2023-04-21T08:32:54.385Z,19.90
2023-04-21T08:35:21.465Z,19.90
2023-04-21T08:37:49.087Z,19.90
2023-04-21T08:40:17.516Z,20.00
2023-04-21T08:42:45.255Z,20.00
2023-04-21T08:45:12.304Z,19.80
2023-04-21T08:47:42.390Z,19.80
2023-04-21T08:50:12.828Z,19.60
2023-04-21T08:52:40.070Z,19.50
2023-04-21T08:55:07.743Z,19.70
2023-04-21T08:57:34.785Z,20.20
2023-04-21T09:00:02.080Z,20.40
2023-04-21T09:02:29.778Z,20.50
2023-04-21T09:05:00.092Z,20.70
2023-04-21T09:09:55.352Z,21.80
2023-04-21T09:12:22.617Z,22.10
2023-04-21T09:14:49.842Z,22.80
2023-04-21T09:17:17.602Z,23.40
2023-04-21T09:19:44.776Z,23.40
2023-04-21T09:22:18.569Z,23.20
2023-04-21T09:24:49.127Z,22.80
2023-04-21T09:27:17.231Z,23.00
2023-04-21T09:29:50.852Z,23.40
2023-04-21T09:32:21.227Z,23.90
2023-04-21T09:34:48.428Z,24.10
2023-04-21T09:37:18.193Z,24.40
2023-04-21T09:40:03.662Z,24.80
2023-04-21T09:42:33.614Z,25.20
2023-04-21T09:45:25.541Z,25.10
2023-04-21T09:47:51.749Z,25.00
2023-04-21T09:50:35.828Z,24.70
2023-04-21T09:53:08.106Z,25.00
2023-04-21T09:55:35.306Z,25.40
2023-04-21T09:58:02.843Z,25.30
2023-04-21T10:00:31.180Z,25.00
2023-04-21T10:03:00.199Z,25.00
2023-04-21T10:05:27.561Z,24.70
2023-04-21T10:07:55.198Z,24.80
2023-04-21T10:10:27.306Z,25.00
2023-04-21T10:12:54.668Z,25.30
2023-04-21T10:15:34.974Z,25.60
2023-04-21T10:18:22.358Z,25.70
2023-04-21T10:20:56.666Z,25.60
2023-04-21T10:23:30.534Z,25.40
2023-04-21T10:26:08.586Z,25.20
2023-04-21T10:28:49.138Z,25.10
2023-04-21T10:31:36.375Z,24.80
2023-04-21T10:34:06.611Z,24.80
2023-04-21T10:36:35.188Z,24.80
2023-04-21T10:39:03.991Z,24.80
2023-04-21T10:41:34.663Z,24.90
2023-04-21T10:44:07.554Z,24.80
2023-04-21T10:46:38.698Z,24.90
2023-04-21T10:49:07.123Z,25.00
2023-04-21T10:51:54.068Z,24.90
2023-04-21T10:54:27.900Z,24.90
2023-04-21T10:56:55.595Z,24.60
2023-04-21T10:59:22.961Z,24.60
2023-04-21T11:01:49.960Z,25.00
2023-04-21T11:04:21.677Z,25.00
2023-04-21T11:07:16.736Z,24.80
2023-04-21T11:09:44.887Z,24.70
2023-04-21T11:12:15.954Z,24.80
2023-04-21T11:14:44.474Z,25.00
2023-04-21T11:17:12.611Z,24.90
2023-04-21T11:19:39.973Z,24.60
2023-04-21T11:22:06.922Z,24.60
2023-04-21T11:24:34.273Z,24.50
2023-04-21T11:27:02.256Z,24.90
2023-04-21T11:29:29.879Z,25.30
2023-04-21T11:31:57.027Z,25.40
2023-04-21T11:34:26.175Z,25.50
2023-04-21T11:36:53.389Z,25.80
2023-04-21T11:39:22.033Z,26.20
2023-04-21T11:41:50.237Z,26.00
2023-04-21T11:44:35.824Z,26.10
2023-04-21T11:47:14.902Z,26.30
2023-04-21T11:49:50.646Z,26.40
2023-04-21T11:52:21.716Z,26.60
2023-04-21T11:54:48.871Z,26.70
2023-04-21T11:57:18.358Z,26.60
2023-04-21T11:59:46.692Z,26.30
2023-04-21T12:02:21.938Z,26.30
2023-04-21T12:05:05.336Z,26.60
2023-04-21T12:07:33.175Z,26.60
2023-04-21T12:10:01.296Z,26.30
2023-04-21T12:12:28.731Z,26.30
2023-04-21T12:14:55.900Z,26.00
2023-04-21T12:17:23.029Z,26.00
2023-04-21T12:19:50.756Z,25.90
2023-04-21T12:22:23.656Z,25.40
2023-04-21T12:24:50.920Z,25.20
2023-04-21T12:27:19.247Z,25.00
2023-04-21T12:29:46.429Z,24.80
2023-04-21T12:32:13.452Z,24.80
2023-04-21T12:34:40.622Z,24.90
2023-04-21T12:37:07.612Z,24.50
2023-04-21T12:39:34.780Z,24.40
2023-04-21T12:42:02.404Z,24.20
2023-04-21T12:44:30.091Z,23.60
2023-04-21T12:46:57.816Z,22.70
2023-04-21T12:49:26.191Z,21.60
2023-04-21T12:51:53.185Z,20.90
2023-04-21T12:54:20.513Z,20.80
2023-04-21T12:56:47.518Z,20.50
2023-04-21T12:59:14.863Z,19.90
2023-04-21T13:01:44.875Z,19.20
2023-04-21T13:04:12.699Z,18.70
2023-04-21T13:06:40.093Z,18.40
2023-04-21T13:09:07.678Z,18.20
2023-04-21T13:11:34.858Z,18.10
2023-04-21T13:14:04.188Z,17.90
2023-04-21T13:16:31.449Z,17.70
2023-04-21T13:18:58.755Z,17.40
2023-04-21T13:21:26.484Z,17.10
2023-04-21T13:23:53.733Z,16.90
2023-04-21T13:26:21.002Z,16.60
2023-04-21T13:28:48.201Z,16.40
2023-04-21T13:31:15.356Z,16.30
2023-04-21T13:33:42.778Z,15.90
2023-04-21T13:36:12.897Z,15.80
2023-04-21T13:38:41.107Z,15.70
2023-04-21T13:41:08.420Z,15.60
2023-04-21T13:46:03.081Z,15.40
2023-04-21T13:48:30.129Z,15.40
2023-04-21T13:50:57.251Z,15.40
2023-04-21T13:53:24.401Z,15.40
2023-04-21T13:55:51.641Z,15.40
2023-04-21T13:58:18.708Z,15.40
2023-04-21T14:00:45.855Z,15.30
2023-04-21T14:03:14.198Z,15.30
2023-04-21T14:05:41.779Z,15.30
2023-04-21T14:08:08.907Z,15.20
2023-04-21T14:10:35.958Z,15.10
2023-04-21T14:13:03.066Z,15.00
2023-04-21T14:15:30.261Z,14.90
2023-04-21T14:17:57.362Z,14.90
2023-04-21T14:20:24.614Z,14.80
2023-04-21T14:22:51.520Z,14.60
2023-04-21T14:25:19.784Z,14.40
2023-04-21T14:27:48.984Z,14.40
2023-04-21T14:30:16.221Z,14.30
2023-04-21T14:32:45.697Z,14.30
2023-04-21T14:37:40.781Z,14.10
2023-04-21T14:40:08.518Z,14.10
2023-04-21T14:42:35.841Z,14.10
2023-04-21T14:45:03.319Z,14.10
2023-04-21T14:47:31.810Z,14.20
2023-04-21T14:49:59.272Z,14.20
2023-04-21T14:52:27.141Z,14.30
2023-04-21T14:54:54.599Z,14.20
2023-04-21T14:57:24.389Z,14.10
2023-04-21T14:59:52.071Z,14.00
2023-04-21T15:02:22.538Z,14.00
2023-04-21T15:04:50.734Z,13.90
2023-04-21T15:07:23.130Z,13.70
2023-04-21T15:09:51.931Z,13.60
2023-04-21T15:12:19.268Z,13.40
2023-04-21T15:14:46.602Z,13.40
2023-04-21T15:17:13.793Z,13.50
2023-04-21T15:19:41.041Z,13.50
2023-04-21T15:22:08.108Z,13.40
2023-04-21T15:24:35.432Z,13.40
2023-04-21T15:27:02.608Z,13.40
2023-04-21T15:29:30.143Z,13.30
2023-04-21T15:31:57.066Z,13.30
2023-04-21T15:34:24.325Z,13.30
2023-04-21T15:36:51.347Z,13.30
2023-04-21T15:39:18.633Z,13.20
2023-04-21T15:41:45.920Z,13.10
2023-04-21T15:44:13.131Z,13.00
2023-04-21T15:46:40.499Z,13.10
2023-04-21T15:49:07.753Z,13.10
2023-04-21T15:51:35.255Z,13.00
2023-04-21T15:54:02.392Z,12.90
2023-04-21T15:56:29.395Z,12.90
2023-04-21T15:58:57.192Z,12.80
2023-04-21T16:01:24.750Z,12.70
2023-04-21T16:03:52.078Z,12.80
2023-04-21T16:06:20.976Z,12.80
2023-04-21T16:08:48.203Z,12.80
2023-04-21T16:11:15.409Z,12.70
2023-04-21T16:13:42.430Z,12.70
2023-04-21T16:16:09.872Z,12.80
2023-04-21T16:18:37.054Z,12.80
2023-04-21T16:21:04.601Z,12.90
2023-04-21T16:23:31.603Z,12.90
2023-04-21T16:25:58.808Z,12.80
2023-04-21T16:28:25.910Z,12.90
2023-04-21T16:30:53.037Z,12.80
2023-04-21T16:33:19.995Z,12.80
2023-04-21T16:35:47.336Z,12.80
2023-04-21T16:38:14.483Z,12.80
2023-04-21T16:40:41.677Z,12.70
2023-04-21T16:43:08.684Z,12.70
2023-04-21T16:45:35.982Z,12.60
2023-04-21T16:48:04.483Z,12.60
2023-04-21T16:50:32.154Z,12.50
2023-04-21T16:52:59.098Z,12.50
2023-04-21T16:55:26.498Z,12.50
2023-04-21T16:57:53.452Z,12.50
2023-04-21T17:00:20.795Z,12.40
2023-04-21T17:02:47.842Z,12.40
2023-04-21T17:05:16.547Z,12.40
2023-04-21T17:07:45.095Z,12.40
2023-04-21T17:10:12.372Z,12.30
2023-04-21T17:12:39.473Z,12.30
2023-04-21T17:15:07.515Z,12.30
2023-04-21T17:17:45.000Z,12.30
2023-04-21T17:20:13.762Z,12.20
2023-04-21T17:22:41.210Z,12.20
2023-04-21T17:25:08.747Z,12.10
2023-04-21T17:27:36.407Z,12.00
2023-04-21T17:30:07.347Z,11.90
2023-04-21T17:32:34.671Z,11.90
2023-04-21T17:35:02.400Z,11.90
2023-04-21T17:37:30.352Z,11.90
2023-04-21T17:40:00.371Z,11.90
2023-04-21T17:42:29.085Z,11.80
2023-04-21T17:44:56.199Z,11.80
2023-04-21T17:47:23.359Z,11.80
2023-04-21T17:49:51.696Z,11.80
2023-04-21T17:52:18.614Z,11.80
2023-04-21T17:54:46.165Z,11.80
2023-04-21T17:57:13.344Z,11.80
2023-04-21T17:59:41.092Z,11.70
2023-04-21T18:02:08.233Z,11.70
2023-04-21T18:04:35.874Z,11.70
2023-04-21T18:07:04.490Z,11.70
2023-04-21T18:09:31.708Z,11.60
2023-04-21T18:11:59.451Z,11.60
2023-04-21T18:14:27.152Z,11.60
2023-04-21T18:16:55.155Z,11.50
2023-04-21T18:19:22.212Z,11.50
2023-04-21T18:21:49.180Z,11.40
2023-04-21T18:24:16.225Z,11.40
2023-04-21T18:26:43.293Z,11.30
2023-04-21T18:29:10.298Z,11.30
2023-04-21T18:31:37.630Z,11.20
2023-04-21T18:34:06.211Z,11.10
2023-04-21T18:36:34.459Z,11.00
2023-04-21T18:39:02.093Z,11.00
2023-04-21T18:41:29.268Z,11.00
2023-04-21T18:43:56.325Z,10.90
2023-04-21T18:46:23.571Z,10.90
2023-04-21T18:48:50.597Z,10.90
2023-04-21T18:51:17.899Z,10.90
2023-04-21T18:53:46.369Z,10.90
2023-04-21T18:56:13.599Z,10.90
2023-04-21T18:58:40.587Z,10.90
2023-04-21T19:01:08.403Z,10.90
2023-04-21T19:03:35.776Z,10.90
2023-04-21T19:06:04.100Z,10.90
2023-04-21T19:08:41.866Z,10.90
2023-04-21T19:11:11.264Z,10.80
2023-04-21T19:13:38.580Z,10.80
2023-04-21T19:16:05.937Z,10.80
2023-04-21T19:18:32.967Z,10.80
2023-04-21T19:21:00.368Z,10.80
2023-04-21T19:23:27.294Z,10.70
2023-04-21T19:25:57.480Z,10.70
2023-04-21T19:28:24.582Z,10.60
2023-04-21T19:30:51.883Z,10.60
2023-04-21T19:33:18.875Z,10.50
2023-04-21T19:35:46.260Z,10.50
2023-04-21T19:38:13.221Z,10.50
2023-04-21T19:40:44.399Z,10.50
2023-04-21T19:43:11.600Z,10.50
2023-04-21T19:45:38.846Z,10.40
2023-04-21T19:48:07.441Z,10.40
2023-04-21T19:50:36.571Z,10.40
2023-04-21T19:53:03.738Z,10.30
2023-04-21T19:55:32.244Z,10.30
2023-04-21T19:57:59.248Z,10.30
2023-04-21T20:00:26.374Z,10.30
2023-04-21T20:02:53.571Z,10.20
2023-04-21T20:05:21.836Z,10.20
2023-04-21T20:07:49.064Z,10.20
2023-04-21T20:10:16.078Z,10.20
2023-04-21T20:12:43.096Z,10.20
2023-04-21T20:15:12.961Z,10.20
2023-04-21T20:17:40.137Z,10.20
2023-04-21T20:20:09.198Z,10.20
2023-04-21T20:22:36.483Z,10.20
2023-04-21T20:25:03.869Z,10.10
2023-04-21T20:27:31.314Z,10.00
2023-04-21T20:29:58.625Z,10.00
2023-04-21T20:32:25.810Z,10.00
2023-04-21T20:34:53.609Z,10.00
2023-04-21T20:37:20.644Z,9.90
2023-04-21T20:39:47.754Z,9.90
2023-04-21T20:42:14.980Z,9.90
2023-04-21T20:44:43.377Z,9.80
2023-04-21T20:47:11.666Z,9.80
2023-04-21T20:49:39.600Z,9.80
2023-04-21T20:52:07.181Z,9.80
2023-04-21T20:54:35.019Z,9.80
2023-04-21T20:57:02.687Z,9.80
2023-04-21T20:59:29.782Z,9.80
2023-04-21T21:01:57.108Z,9.80
2023-04-21T21:04:24.349Z,9.80
2023-04-21T21:06:51.640Z,9.80
2023-04-21T21:09:19.215Z,9.70
2023-04-21T21:11:46.576Z,9.70
2023-04-21T21:14:13.560Z,9.70
2023-04-21T21:16:40.946Z,9.60
2023-04-21T21:19:07.968Z,9.60
2023-04-21T21:21:35.194Z,9.60
2023-04-21T21:24:02.339Z,9.60
2023-04-21T21:26:29.737Z,9.60
2023-04-21T21:28:57.251Z,9.50
2023-04-21T21:31:25.754Z,9.50
2023-04-21T21:33:52.865Z,9.50
2023-04-21T21:36:23.682Z,9.50
2023-04-21T21:38:50.989Z,9.50
2023-04-21T21:41:19.815Z,9.40
2023-04-21T21:43:47.001Z,9.50
2023-04-21T21:46:14.089Z,9.40
2023-04-21T21:48:42.704Z,9.40
2023-04-21T21:51:09.908Z,9.40
2023-04-21T21:53:36.919Z,9.40
2023-04-21T21:56:04.753Z,9.40
2023-04-21T21:58:32.052Z,9.30
2023-04-21T22:00:59.578Z,9.30
2023-04-21T22:03:27.262Z,9.30
2023-04-21T22:05:54.634Z,9.30
2023-04-21T22:08:21.627Z,9.20
2023-04-21T22:10:49.224Z,9.20
2023-04-21T22:13:16.294Z,9.20
2023-04-21T22:15:43.865Z,9.20
2023-04-21T22:18:11.291Z,9.10
2023-04-21T22:20:38.831Z,9.10
2023-04-21T22:23:06.083Z,9.10
2023-04-21T22:25:33.447Z,9.10
2023-04-21T22:28:00.912Z,9.10
2023-04-21T22:30:28.321Z,9.00
2023-04-21T22:32:55.379Z,9.00
2023-04-21T22:35:22.571Z,9.00
2023-04-21T22:37:49.486Z,9.00
2023-04-21T22:40:16.513Z,9.00
2023-04-21T22:42:43.486Z,8.90
2023-04-21T22:45:10.713Z,8.90
2023-04-21T22:47:37.754Z,8.90
2023-04-21T22:50:05.007Z,8.90
2023-04-21T22:52:32.119Z,8.90
2023-04-21T22:54:59.151Z,8.80
2023-04-21T22:57:26.972Z,8.80
2023-04-21T22:59:53.974Z,8.80
2023-04-21T23:02:21.711Z,8.70
2023-04-21T23:04:48.742Z,8.70
2023-04-21T23:07:15.893Z,8.80
2023-04-21T23:09:42.855Z,8.80
2023-04-21T23:12:10.286Z,8.80
2023-04-21T23:14:37.409Z,8.80
2023-04-21T23:17:04.486Z,8.70
2023-04-21T23:19:31.480Z,8.70
2023-04-21T23:21:58.759Z,8.70
2023-04-21T23:24:25.707Z,8.70
2023-04-21T23:26:53.052Z,8.60
2023-04-21T23:29:20.081Z,8.60
2023-04-21T23:31:47.453Z,8.60
2023-04-21T23:34:15.442Z,8.60
2023-04-21T23:36:42.579Z,8.60
2023-04-21T23:39:10.250Z,8.60
2023-04-21T23:41:37.583Z,8.50
2023-04-21T23:44:04.540Z,8.50
2023-04-21T23:46:32.920Z,8.50
2023-04-21T23:49:00.023Z,8.50
2023-04-21T23:51:28.300Z,8.50
2023-04-21T23:53:55.299Z,8.40
2023-04-21T23:56:22.632Z,8.40
2023-04-21T23:58:49.633Z,8.40
